Time;durP1;ratioP1;P1;durP2;ratioP2;P2;SDS_P1;SDS_P2;PMS_P1;PMS_P2;Temp;Humidity;BMP_temperature;BMP_pressure;BME280_temperature;BME280_humidity;BME280_pressure;Samples;Min_cycle;Max_cycle;Signal;HPM_P1;HPM_P2
2024/01/23 00:00:35;;;;;;;3.20;1.38;;;6.20;99.90;;;;;;5089817;28;20036;-85
2024/01/23 00:03:00;;;;;;;0.00;0.00;;;6.10;99.90;;;;;;5098093;28;20051;-85
2024/01/23 00:05:26;;;;;;;0.40;0.30;;;6.20;98.40;;;;;;5096162;28;20043;-85
2024/01/23 00:07:52;;;;;;;0.65;0.38;;;6.10;92.60;;;;;;5094735;28;20108;-85
2024/01/23 00:10:19;;;;;;;1.15;0.90;;;6.10;86.60;;;;;;5094548;28;20052;-85
2024/01/23 00:12:45;;;;;;;23.00;0.47;;;6.10;92.20;;;;;;5097753;28;20054;-85
2024/01/23 00:15:11;;;;;;;0.00;0.00;;;6.10;68.00;;;;;;5097944;28;20556;-85
2024/01/23 00:17:36;;;;;;;3.05;0.20;;;6.10;64.90;;;;;;5071138;28;20080;-85
2024/01/23 00:20:04;;;;;;;0.00;0.00;;;6.00;60.10;;;;;;5093484;28;20044;-85
2024/01/23 00:22:30;;;;;;;0.05;0.05;;;6.00;58.20;;;;;;5102678;28;20998;-85
2024/01/23 00:24:55;;;;;;;0.95;0.55;;;6.10;37.20;;;;;;5089338;28;20090;-85
2024/01/23 00:27:21;;;;;;;0.00;0.00;;;6.10;24.60;;;;;;5091241;28;20056;-85
2024/01/23 00:29:47;;;;;;;0.20;0.20;;;6.20;17.70;;;;;;5068883;28;20083;-86
2024/01/23 00:32:12;;;;;;;2.05;1.67;;;6.10;8.50;;;;;;5093051;28;20051;-85
2024/01/23 00:34:38;;;;;;;0.32;0.32;;;6.00;16.40;;;;;;5094411;28;20044;-85
2024/01/23 00:37:04;;;;;;;0.00;0.00;;;6.00;15.80;;;;;;5094468;28;20808;-85
2024/01/23 00:39:30;;;;;;;0.17;0.17;;;6.10;10.60;;;;;;5068415;28;20040;-85
2024/01/23 00:41:55;;;;;;;1.90;1.35;;;6.10;13.70;;;;;;5095099;28;20547;-85
2024/01/23 00:44:21;;;;;;;1.35;0.20;;;6.10;16.30;;;;;;5098645;28;20080;-85
2024/01/23 00:46:47;;;;;;;0.00;0.00;;;6.10;6.00;;;;;;5072758;28;20086;-85
2024/01/23 00:49:12;;;;;;;0.08;0.08;;;6.10;3.60;;;;;;5096467;28;20040;-84
2024/01/23 00:51:38;;;;;;;0.00;0.00;;;6.10;2.10;;;;;;5074070;28;20055;-85
2024/01/23 00:54:04;;;;;;;0.00;0.00;;;6.10;1.30;;;;;;5094086;28;20051;-85
2024/01/23 00:56:29;;;;;;;1.35;0.85;;;6.20;6.00;;;;;;5094058;28;20040;-85
2024/01/23 00:58:55;;;;;;;1.48;1.38;;;6.20;7.30;;;;;;5093906;28;20044;-85
2024/01/23 01:01:20;;;;;;;0.00;0.00;;;6.20;1.00;;;;;;5095342;28;20044;-85
2024/01/23 01:03:46;;;;;;;0.08;0.08;;;6.40;1.00;;;;;;5097398;28;20046;-85
2024/01/23 01:06:12;;;;;;;0.55;0.47;;;6.40;1.00;;;;;;5071269;28;20044;-85
2024/01/23 01:08:37;;;;;;;0.00;0.00;;;6.30;1.00;;;;;;5094576;28;20050;-85
2024/01/23 01:11:04;;;;;;;0.00;0.00;;;6.20;1.00;;;;;;5097022;28;20460;-85
2024/01/23 01:13:30;;;;;;;0.00;0.00;;;6.30;1.00;;;;;;5095728;28;20101;-85
2024/01/23 01:15:55;;;;;;;0.45;0.40;;;6.40;1.00;;;;;;5093626;28;20448;-85
2024/01/23 01:18:21;;;;;;;1.02;0.95;;;6.40;1.00;;;;;;5093382;28;20077;-85
2024/01/23 01:20:48;;;;;;;21.13;0.88;;;7.10;1.00;;;;;;5095831;28;20165;-85
2024/01/23 01:23:15;;;;;;;0.28;0.28;;;6.50;1.00;;;;;;5098372;28;20043;-84
2024/01/23 01:25:43;;;;;;;6.43;3.30;;;6.50;1.00;;;;;;5069628;28;20060;-85
2024/01/23 01:28:09;;;;;;;0.32;0.20;;;6.30;1.00;;;;;;5096946;28;20082;-85
2024/01/23 01:30:34;;;;;;;0.63;0.45;;;6.20;1.00;;;;;;5069971;28;20079;-85
2024/01/23 01:33:00;;;;;;;0.47;0.47;;;6.20;1.00;;;;;;5095601;28;20055;-85
2024/01/23 01:35:25;;;;;;;0.20;0.20;;;6.20;1.00;;;;;;5066030;28;20097;-85
2024/01/23 01:37:51;;;;;;;0.52;0.15;;;6.10;1.00;;;;;;5090288;28;20313;-85
2024/01/23 01:40:16;;;;;;;0.00;0.00;;;6.10;1.00;;;;;;5066245;28;20539;-85
2024/01/23 01:42:43;;;;;;;0.40;0.05;;;6.10;3.90;;;;;;5091692;28;20051;-85
2024/01/23 01:45:12;;;;;;;1.48;0.65;;;6.20;8.80;;;;;;5093795;28;20113;-85
2024/01/23 01:47:41;;;;;;;0.00;0.00;;;6.30;1.00;;;;;;5089677;28;20043;-85
2024/01/23 01:50:08;;;;;;;0.75;0.75;;;6.30;1.00;;;;;;5095495;28;20052;-85
2024/01/23 01:52:36;;;;;;;9.75;0.63;;;6.20;1.00;;;;;;5096045;28;20319;-85
2024/01/23 01:55:04;;;;;;;0.22;0.22;;;6.20;1.00;;;;;;5069610;28;20406;-85
2024/01/23 01:57:33;;;;;;;0.00;0.00;;;6.00;7.60;;;;;;5084314;28;20443;-85
2024/01/23 01:59:59;;;;;;;0.00;0.00;;;6.10;5.60;;;;;;5092518;28;20070;-84
2024/01/23 02:02:26;;;;;;;0.75;0.52;;;6.10;1.00;;;;;;5094281;28;20056;-85
2024/01/23 02:04:52;;;;;;;1.33;0.90;;;6.10;1.00;;;;;;5072325;28;20052;-85
2024/01/23 02:07:18;;;;;;;0.10;0.10;;;6.00;1.00;;;;;;5066063;28;20086;-84
2024/01/23 02:09:43;;;;;;;2.45;1.60;;;6.00;1.00;;;;;;5095669;28;20524;-85
2024/01/23 02:12:10;;;;;;;0.00;0.00;;;5.90;1.60;;;;;;5095371;28;20087;-85
2024/01/23 02:14:36;;;;;;;2.47;1.55;;;5.90;7.80;;;;;;5093236;28;20059;-85
2024/01/23 02:17:01;;;;;;;0.63;0.55;;;5.80;12.90;;;;;;5092027;28;20048;-85
2024/01/23 02:19:27;;;;;;;0.05;0.05;;;5.90;6.70;;;;;;5065128;28;20044;-85
2024/01/23 02:21:53;;;;;;;0.90;0.83;;;5.90;4.90;;;;;;5095001;28;20472;-85
2024/01/23 02:24:19;;;;;;;0.10;0.10;;;5.90;2.10;;;;;;5095516;28;20046;-85
2024/01/23 02:26:45;;;;;;;5.47;1.98;;;5.90;1.00;;;;;;5093804;28;20051;-85
2024/01/23 02:29:11;;;;;;;0.88;0.38;;;5.90;1.00;;;;;;5091222;28;20040;-85
2024/01/23 02:31:37;;;;;;;0.43;0.43;;;5.90;1.00;;;;;;5092250;28;20127;-85
2024/01/23 02:34:02;;;;;;;0.10;0.10;;;5.90;1.00;;;;;;5068254;28;20058;-85
2024/01/23 02:36:28;;;;;;;0.00;0.00;;;5.80;1.00;;;;;;5089355;28;20483;-85
2024/01/23 02:38:54;;;;;;;0.43;0.38;;;5.80;2.70;;;;;;5092703;28;20058;-85
2024/01/23 02:41:19;;;;;;;0.40;0.40;;;5.80;1.60;;;;;;5095448;28;20038;-85
2024/01/23 02:43:45;;;;;;;0.00;0.00;;;5.80;1.00;;;;;;5094944;28;20050;-85
2024/01/23 02:46:10;;;;;;;0.10;0.10;;;5.80;1.00;;;;;;5095115;28;20130;-85
2024/01/23 02:48:36;;;;;;;2.30;1.17;;;5.90;1.00;;;;;;5095109;28;20036;-85
2024/01/23 02:51:02;;;;;;;0.70;0.70;;;6.00;1.00;;;;;;5094329;28;20538;-85
2024/01/23 02:53:27;;;;;;;0.05;0.05;;;6.00;1.00;;;;;;5092162;28;20447;-85
2024/01/23 02:55:53;;;;;;;7.05;2.40;;;6.10;1.00;;;;;;5091574;28;20123;-85
2024/01/23 02:58:21;;;;;;;3.10;1.10;;;6.20;1.00;;;;;;5093885;28;20177;-85
2024/01/23 03:00:47;;;;;;;1.25;0.13;;;6.40;1.00;;;;;;5094789;28;20054;-85
2024/01/23 03:03:12;;;;;;;2.50;0.43;;;6.40;1.00;;;;;;5067957;28;20048;-84
2024/01/23 03:05:38;;;;;;;0.00;0.00;;;6.50;1.00;;;;;;5091413;28;20044;-85
2024/01/23 03:08:04;;;;;;;27.30;0.85;;;6.60;1.00;;;;;;5064135;28;20130;-85
2024/01/23 03:10:30;;;;;;;0.43;0.43;;;6.50;1.00;;;;;;5092846;28;20056;-85
2024/01/23 03:12:56;;;;;;;0.10;0.10;;;6.60;1.00;;;;;;5094870;28;20408;-84
2024/01/23 03:15:22;;;;;;;0.75;0.73;;;6.60;1.00;;;;;;5067728;28;20051;-85
2024/01/23 03:17:47;;;;;;;0.10;0.10;;;6.50;1.00;;;;;;5091594;28;20416;-85
2024/01/23 03:20:13;;;;;;;0.28;0.28;;;6.60;1.00;;;;;;5064577;28;20036;-85
2024/01/23 03:22:38;;;;;;;0.00;0.00;;;6.70;1.00;;;;;;5065563;28;20766;-85
2024/01/23 03:25:05;;;;;;;0.00;0.00;;;6.70;1.00;;;;;;5071996;28;20076;-85
2024/01/23 03:27:31;;;;;;;0.15;0.15;;;6.70;1.00;;;;;;5091520;28;20482;-85
2024/01/23 03:29:57;;;;;;;2.45;0.75;;;6.60;1.00;;;;;;5094774;28;20699;-85
2024/01/23 03:32:22;;;;;;;0.98;0.43;;;6.60;1.00;;;;;;5101097;28;20075;-85
2024/01/23 03:34:49;;;;;;;0.65;0.47;;;6.70;1.00;;;;;;5074193;28;20134;-85
2024/01/23 03:37:15;;;;;;;0.00;0.00;;;6.70;1.00;;;;;;5093394;28;20051;-85
2024/01/23 03:39:41;;;;;;;3.10;1.00;;;6.60;1.00;;;;;;5093194;28;20043;-85
2024/01/23 03:42:07;;;;;;;0.90;0.90;;;6.70;1.00;;;;;;5100115;28;20048;-85
2024/01/23 03:44:32;;;;;;;0.10;0.10;;;6.60;1.00;;;;;;5100659;28;20035;-85
2024/01/23 03:46:58;;;;;;;1.90;1.75;;;6.50;1.00;;;;;;5100532;28;20043;-85
2024/01/23 03:49:24;;;;;;;0.08;0.08;;;6.50;1.00;;;;;;5105542;28;20047;-85
2024/01/23 03:51:50;;;;;;;2.00;1.70;;;6.50;1.00;;;;;;5097506;28;20052;-85
2024/01/23 03:54:16;;;;;;;20.48;1.58;;;6.60;1.00;;;;;;5100049;28;20059;-85
2024/01/23 03:56:42;;;;;;;2.20;1.17;;;6.70;1.00;;;;;;5101039;28;20044;-85
2024/01/23 03:59:08;;;;;;;3.55;1.40;;;6.60;1.00;;;;;;5109297;28;20564;-85
2024/01/23 04:01:34;;;;;;;0.28;0.28;;;6.60;1.00;;;;;;5071163;28;20587;-85
2024/01/23 04:04:00;;;;;;;2.28;1.05;;;6.70;1.00;;;;;;5097687;28;20497;-85
2024/01/23 04:06:26;;;;;;;2.53;2.17;;;6.70;1.00;;;;;;5100059;28;20082;-85
2024/01/23 04:08:51;;;;;;;0.10;0.10;;;6.80;1.00;;;;;;5077401;28;20534;-85
2024/01/23 04:11:17;;;;;;;0.00;0.00;;;6.80;1.00;;;;;;5097876;28;20585;-85
2024/01/23 04:13:43;;;;;;;0.88;0.70;;;6.80;1.00;;;;;;5072227;28;20467;-85
2024/01/23 04:16:09;;;;;;;2.15;0.70;;;6.80;1.00;;;;;;5101278;28;20035;-85
2024/01/23 04:18:35;;;;;;;0.85;0.20;;;6.80;1.00;;;;;;5096411;28;20093;-85
2024/01/23 04:21:01;;;;;;;0.43;0.43;;;6.80;1.00;;;;;;5100890;28;20127;-85
2024/01/23 04:23:28;;;;;;;0.93;0.77;;;6.90;1.00;;;;;;5101395;28;20036;-85
2024/01/23 04:25:53;;;;;;;0.45;0.45;;;6.90;1.00;;;;;;5099547;28;20054;-85
2024/01/23 04:28:20;;;;;;;0.47;0.47;;;7.00;1.00;;;;;;5099010;28;20047;-85
2024/01/23 04:30:46;;;;;;;0.10;0.10;;;7.00;1.00;;;;;;5091876;28;20209;-85
2024/01/23 04:33:11;;;;;;;0.10;0.10;;;7.00;1.00;;;;;;5100266;28;20126;-85
2024/01/23 04:35:37;;;;;;;1.55;1.27;;;7.00;1.00;;;;;;5073411;28;20052;-85
2024/01/23 04:38:03;;;;;;;9.23;0.98;;;7.00;1.00;;;;;;5077923;28;20782;-85
2024/01/23 04:40:28;;;;;;;2.17;1.02;;;7.00;1.00;;;;;;5097715;28;20040;-84
2024/01/23 04:42:54;;;;;;;1.85;0.75;;;7.00;1.00;;;;;;5097283;28;20512;-85
2024/01/23 04:45:20;;;;;;;0.13;0.13;;;7.10;1.00;;;;;;5068720;28;20047;-85
2024/01/23 04:47:45;;;;;;;0.95;0.95;;;7.10;1.00;;;;;;5104290;28;20039;-85
2024/01/23 04:50:11;;;;;;;7.85;0.95;;;7.00;1.00;;;;;;5093907;28;20484;-85
2024/01/23 04:52:36;;;;;;;0.40;0.22;;;7.00;1.00;;;;;;5094072;28;20040;-85
2024/01/23 04:55:02;;;;;;;0.25;0.25;;;7.00;1.00;;;;;;5096147;28;20035;-85
2024/01/23 04:57:31;;;;;;;1.45;1.27;;;7.00;1.00;;;;;;5073715;28;20051;-85
2024/01/23 04:59:57;;;;;;;2.55;0.63;;;7.10;1.00;;;;;;5067688;28;20056;-85
2024/01/23 05:02:23;;;;;;;0.20;0.20;;;7.00;1.00;;;;;;5092472;28;20048;-85
2024/01/23 05:04:49;;;;;;;0.00;0.00;;;7.10;1.00;;;;;;5067074;28;20399;-85
2024/01/23 05:07:14;;;;;;;9.95;1.70;;;7.10;1.00;;;;;;5095494;28;20044;-85
2024/01/23 05:09:40;;;;;;;0.30;0.30;;;7.10;1.00;;;;;;5091996;28;20060;-85
2024/01/23 05:12:06;;;;;;;1.25;1.02;;;7.10;1.00;;;;;;5094078;28;20105;-85
2024/01/23 05:14:31;;;;;;;1.02;0.25;;;7.10;1.00;;;;;;5044746;28;20043;-85
2024/01/23 05:16:57;;;;;;;0.45;0.45;;;7.10;1.00;;;;;;5096932;28;20548;-85
2024/01/23 05:19:23;;;;;;;1.45;0.15;;;7.80;1.00;;;;;;5069587;28;20052;-84
2024/01/23 05:21:48;;;;;;;1.45;0.98;;;7.10;1.00;;;;;;5100622;28;20036;-85
2024/01/23 05:24:14;;;;;;;7.03;1.38;;;7.10;1.00;;;;;;5066345;28;20079;-85
2024/01/23 05:26:39;;;;;;;0.10;0.10;;;7.10;1.00;;;;;;5069488;28;20048;-85
2024/01/23 05:29:05;;;;;;;2.75;1.27;;;7.10;1.00;;;;;;5072734;28;20054;-85
2024/01/23 05:31:31;;;;;;;0.20;0.20;;;7.10;1.00;;;;;;5093809;28;20044;-85
2024/01/23 05:33:56;;;;;;;2.17;1.70;;;7.20;1.00;;;;;;5096835;28;20047;-85
2024/01/23 05:36:22;;;;;;;0.00;0.00;;;7.60;1.00;;;;;;5096541;28;20055;-85
2024/01/23 05:38:48;;;;;;;0.45;0.45;;;7.20;1.00;;;;;;5095436;28;20611;-85
2024/01/23 05:41:14;;;;;;;0.65;0.65;;;7.20;1.00;;;;;;5096529;28;20446;-85
2024/01/23 05:43:39;;;;;;;12.32;1.38;;;7.20;1.00;;;;;;5095677;28;20043;-85
2024/01/23 05:46:05;;;;;;;0.90;0.63;;;7.30;1.00;;;;;;5066498;28;20071;-85
2024/01/23 05:48:31;;;;;;;9.43;1.40;;;7.30;1.00;;;;;;5092822;28;20048;-85
2024/01/23 05:50:56;;;;;;;2.33;1.70;;;7.20;1.00;;;;;;5094540;28;20519;-85
2024/01/23 05:53:22;;;;;;;2.75;0.73;;;7.20;1.00;;;;;;5080937;28;20043;-84
2024/01/23 05:55:48;;;;;;;5.32;0.95;;;7.20;1.00;;;;;;5092931;28;20048;-85
2024/01/23 05:58:13;;;;;;;0.80;0.80;;;7.20;1.00;;;;;;5069332;28;20140;-85
2024/01/23 06:00:39;;;;;;;0.00;0.00;;;7.20;1.00;;;;;;5071149;28;20039;-85
2024/01/23 06:03:05;;;;;;;1.20;0.82;;;7.20;1.00;;;;;;5092249;28;20047;-85
2024/01/23 06:05:30;;;;;;;2.85;1.65;;;7.20;1.00;;;;;;5092965;28;20039;-85
2024/01/23 06:07:56;;;;;;;0.00;0.00;;;7.10;1.00;;;;;;5065768;28;20117;-85
2024/01/23 06:10:22;;;;;;;0.95;0.95;;;7.00;1.00;;;;;;5095163;28;20096;-85
2024/01/23 06:12:48;;;;;;;0.00;0.00;;;7.00;1.00;;;;;;5095377;28;20047;-85
2024/01/23 06:15:14;;;;;;;5.45;1.45;;;7.00;1.00;;;;;;5068746;28;20416;-85
2024/01/23 06:17:40;;;;;;;0.35;0.32;;;6.90;1.00;;;;;;5095295;28;20055;-85
2024/01/23 06:20:07;;;;;;;1.27;0.70;;;6.80;1.00;;;;;;5095916;28;20039;-85
2024/01/23 06:22:34;;;;;;;12.80;0.90;;;6.80;1.00;;;;;;5092768;28;20524;-85
2024/01/23 06:25:14;;;;;;;0.43;0.43;;;6.70;1.00;;;;;;5098315;28;20378;-85
2024/01/23 06:27:43;;;;;;;0.60;0.60;;;6.60;1.00;;;;;;5093069;28;20118;-85
2024/01/23 06:30:11;;;;;;;0.63;0.63;;;6.60;10.20;;;;;;5065160;28;20136;-84
2024/01/23 06:32:40;;;;;;;0.00;0.00;;;6.60;11.80;;;;;;5092152;28;20121;-85
2024/01/23 06:35:07;;;;;;;3.22;2.00;;;6.50;19.20;;;;;;5097613;28;20123;-85
2024/01/23 06:37:34;;;;;;;1.02;1.00;;;6.50;16.50;;;;;;5094782;28;20408;-85
2024/01/23 06:39:59;;;;;;;0.08;0.08;;;6.40;26.80;;;;;;5091688;28;20040;-85
2024/01/23 06:42:25;;;;;;;1.48;0.38;;;6.30;35.10;;;;;;5091883;28;20056;-85
2024/01/23 06:44:51;;;;;;;1.63;0.95;;;6.30;57.20;;;;;;5093413;28;20572;-85
2024/01/23 06:47:17;;;;;;;0.00;0.00;;;6.40;59.70;;;;;;5098490;28;20455;-85
2024/01/23 06:49:43;;;;;;;1.38;1.20;;;6.30;74.40;;;;;;5091585;28;20463;-85
2024/01/23 06:52:08;;;;;;;2.92;1.40;;;6.20;81.90;;;;;;5059636;28;20126;-85
2024/01/23 06:54:34;;;;;;;7.07;1.55;;;6.20;94.30;;;;;;5088621;28;20319;-85
2024/01/23 06:57:00;;;;;;;2.38;0.70;;;6.10;99.10;;;;;;5093072;28;20047;-85
2024/01/23 06:59:26;;;;;;;3.70;2.15;;;6.00;99.90;;;;;;5095241;28;20038;-85
2024/01/23 07:01:52;;;;;;;20.67;1.27;;;6.00;99.90;;;;;;5094043;28;20447;-85
2024/01/23 07:04:17;;;;;;;0.00;0.00;;;6.00;99.90;;;;;;5083353;28;20077;-85
2024/01/23 07:06:43;;;;;;;0.40;0.28;;;5.90;99.90;;;;;;5090871;28;20136;-85
2024/01/23 07:09:09;;;;;;;0.10;0.10;;;5.80;99.90;;;;;;5100125;28;20071;-85
2024/01/23 07:11:37;;;;;;;43.33;1.10;;;5.70;99.90;;;;;;5091591;28;20051;-85
2024/01/23 07:14:03;;;;;;;4.25;0.93;;;5.70;99.90;;;;;;5091529;28;20100;-85
2024/01/23 07:16:29;;;;;;;7.80;3.22;;;5.60;99.90;;;;;;5067474;28;20055;-85
2024/01/23 07:18:54;;;;;;;2.92;1.02;;;5.50;99.90;;;;;;5094603;28;20054;-85
2024/01/23 07:21:20;;;;;;;0.55;0.52;;;5.50;99.90;;;;;;5067713;28;20413;-85
2024/01/23 07:23:45;;;;;;;0.30;0.30;;;5.40;99.90;;;;;;5098952;28;20410;-85
2024/01/23 07:26:11;;;;;;;0.75;0.70;;;5.40;99.90;;;;;;5090415;28;20491;-85
2024/01/23 07:28:37;;;;;;;1.50;0.95;;;5.30;99.90;;;;;;5085642;28;20043;-85
2024/01/23 07:31:02;;;;;;;0.00;0.00;;;5.20;99.90;;;;;;5097521;28;20059;-85
2024/01/23 07:33:28;;;;;;;0.00;0.00;;;5.30;1.00;;;;;;5091309;28;20051;-85
2024/01/23 07:35:54;;;;;;;7.65;3.45;;;5.30;1.00;;;;;;5094410;28;20520;-85
2024/01/23 07:38:19;;;;;;;1.88;1.00;;;5.30;1.00;;;;;;5094020;28;20059;-85
2024/01/23 07:40:45;;;;;;;0.20;0.20;;;5.30;1.00;;;;;;5086745;28;20051;-85
2024/01/23 07:43:10;;;;;;;37.53;2.60;;;5.20;1.00;;;;;;5089588;28;20048;-85
2024/01/23 07:45:37;;;;;;;0.25;0.25;;;5.20;1.00;;;;;;5065985;28;20127;-85
2024/01/23 07:48:03;;;;;;;0.98;0.85;;;5.20;1.00;;;;;;5094084;28;20126;-84
2024/01/23 07:50:28;;;;;;;1.00;0.73;;;5.10;1.00;;;;;;5094141;28;20464;-85
2024/01/23 07:52:54;;;;;;;0.75;0.75;;;5.20;1.00;;;;;;5093012;28;20047;-85
2024/01/23 07:55:19;;;;;;;1.77;0.90;;;4.20;22.10;;;;;;5091143;28;20051;-85
2024/01/23 07:57:45;;;;;;;0.87;0.87;;;5.20;99.90;;;;;;5090928;28;20286;-85
2024/01/23 08:00:12;;;;;;;1.13;1.03;;;5.20;41.70;;;;;;5093442;28;20428;-85
2024/01/23 08:02:38;;;;;;;0.97;0.90;;;5.20;70.40;;;;;;5088273;28;20139;-85
2024/01/23 08:05:03;;;;;;;0.87;0.83;;;5.20;99.90;;;;;;5091820;28;20131;-85
2024/01/23 08:07:29;;;;;;;0.70;0.70;;;5.30;99.90;;;;;;5094286;28;20127;-85
2024/01/23 08:09:55;;;;;;;3.47;2.97;;;5.40;95.10;;;;;;5093792;28;20059;-85
2024/01/23 08:12:20;;;;;;;0.30;0.30;;;5.50;10.20;;;;;;5091727;28;20047;-85
2024/01/23 08:14:46;;;;;;;4.13;2.50;;;5.40;1.00;;;;;;5090856;28;20134;-85
2024/01/23 08:17:12;;;;;;;0.00;0.00;;;5.40;79.40;;;;;;5092032;28;20080;-85
2024/01/23 08:19:39;;;;;;;29.25;2.92;;;5.60;21.20;;;;;;5097964;28;20455;-84
2024/01/23 08:22:05;;;;;;;0.70;0.70;;;5.60;1.00;;;;;;5098345;28;20101;-85
2024/01/23 08:24:31;;;;;;;0.80;0.55;;;5.70;1.00;;;;;;5070622;28;20044;-85
2024/01/23 08:26:57;;;;;;;0.00;0.00;;;5.60;1.00;;;;;;5098107;28;20150;-85
2024/01/23 08:29:23;;;;;;;2.33;1.90;;;5.60;1.00;;;;;;5097686;28;20134;-85
2024/01/23 08:31:49;;;;;;;5.63;0.83;;;5.60;1.00;;;;;;5094865;28;20048;-85
2024/01/23 08:34:14;;;;;;;4.70;1.38;;;5.60;1.00;;;;;;5094709;28;20044;-85
2024/01/23 08:36:40;;;;;;;0.98;0.95;;;5.60;1.00;;;;;;5094545;28;20501;-85
2024/01/23 08:39:06;;;;;;;0.73;0.73;;;5.70;1.00;;;;;;5094412;28;20075;-85
2024/01/23 08:41:31;;;;;;;0.00;0.00;;;5.70;1.00;;;;;;5094437;28;20497;-85
2024/01/23 08:43:57;;;;;;;2.05;1.55;;;5.60;1.00;;;;;;5102814;28;20104;-85
2024/01/23 08:46:23;;;;;;;0.98;0.70;;;5.60;1.00;;;;;;5094082;28;20032;-85
2024/01/23 08:48:49;;;;;;;0.70;0.52;;;5.70;1.00;;;;;;5094032;28;20050;-85
2024/01/23 08:51:15;;;;;;;0.93;0.70;;;5.70;1.00;;;;;;5099013;28;20048;-85
2024/01/23 08:53:40;;;;;;;0.40;0.40;;;5.70;1.00;;;;;;5096449;28;20642;-85
2024/01/23 08:56:06;;;;;;;7.13;1.80;;;5.80;1.00;;;;;;5071430;28;20071;-85
2024/01/23 08:58:32;;;;;;;0.00;0.00;;;5.90;1.00;;;;;;5097785;28;20043;-85
2024/01/23 09:00:58;;;;;;;1.27;1.17;;;5.80;1.00;;;;;;5098096;28;20047;-85
2024/01/23 09:03:23;;;;;;;0.40;0.40;;;5.80;1.00;;;;;;5092934;28;20131;-85
2024/01/23 09:05:50;;;;;;;12.00;3.00;;;5.80;1.00;;;;;;5067156;28;20127;-85
2024/01/23 09:08:16;;;;;;;4.97;1.25;;;5.80;1.00;;;;;;5096127;28;20054;-85
2024/01/23 09:10:42;;;;;;;0.95;0.95;;;5.80;1.00;;;;;;5072725;28;20508;-85
2024/01/23 09:13:08;;;;;;;1.00;0.95;;;5.90;1.00;;;;;;5094428;28;20048;-85
2024/01/23 09:15:34;;;;;;;1.33;1.23;;;5.90;1.00;;;;;;5097145;28;20081;-84
2024/01/23 09:18:00;;;;;;;0.00;0.00;;;5.90;1.00;;;;;;5097079;28;20052;-85
2024/01/23 09:20:26;;;;;;;2.60;1.63;;;6.00;1.00;;;;;;5088152;28;20052;-85
2024/01/23 09:22:52;;;;;;;0.20;0.20;;;5.90;1.00;;;;;;5096740;28;20104;-85
2024/01/23 09:25:18;;;;;;;0.68;0.60;;;6.00;1.00;;;;;;5096777;28;20043;-85
2024/01/23 09:27:44;;;;;;;0.03;0.03;;;6.00;1.00;;;;;;5066667;28;20087;-85
2024/01/23 09:30:10;;;;;;;17.45;3.40;;;6.00;1.00;;;;;;5065585;28;20084;-85
2024/01/23 09:32:36;;;;;;;1.58;1.48;;;6.10;99.90;;;;;;5094408;28;20100;-85
2024/01/23 09:35:02;;;;;;;0.13;0.13;;;6.20;99.90;;;;;;5073068;28;20043;-85
2024/01/23 09:37:28;;;;;;;7.05;1.65;;;6.30;99.90;;;;;;5066576;28;20052;-85
2024/01/23 09:39:54;;;;;;;0.45;0.45;;;6.30;99.90;;;;;;5101404;28;20040;-85
2024/01/23 09:42:23;;;;;;;0.30;0.30;;;6.30;99.90;;;;;;5099850;28;20043;-84
2024/01/23 09:44:52;;;;;;;0.43;0.43;;;6.40;99.90;;;;;;5069447;28;20070;-85
2024/01/23 09:47:19;;;;;;;2.35;0.45;;;6.40;99.90;;;;;;5072210;28;20127;-85
2024/01/23 09:49:45;;;;;;;0.65;0.65;;;6.40;99.90;;;;;;5050272;28;20169;-85
2024/01/23 09:52:12;;;;;;;3.95;1.10;;;6.50;99.90;;;;;;5096191;28;20047;-85
2024/01/23 09:54:38;;;;;;;2.42;1.25;;;6.60;99.90;;;;;;5096060;28;20043;-85
2024/01/23 09:57:04;;;;;;;3.00;1.50;;;6.70;99.90;;;;;;5095816;28;20118;-85
2024/01/23 09:59:29;;;;;;;1.98;1.77;;;6.70;99.90;;;;;;5096164;28;20043;-85
2024/01/23 10:01:56;;;;;;;0.00;0.00;;;6.80;99.90;;;;;;5095945;28;20513;-85
2024/01/23 10:04:21;;;;;;;0.40;0.25;;;7.10;99.90;;;;;;5096555;28;20488;-85
2024/01/23 10:06:47;;;;;;;0.00;0.00;;;7.10;99.90;;;;;;5095711;28;20055;-85
2024/01/23 10:09:13;;;;;;;28.08;2.25;;;7.10;99.90;;;;;;5068556;28;20380;-85
2024/01/23 10:11:39;;;;;;;1.55;1.45;;;7.10;99.90;;;;;;5095179;28;20311;-85
2024/01/23 10:14:06;;;;;;;1.45;0.85;;;7.10;99.90;;;;;;5096103;28;20043;-85
2024/01/23 10:16:32;;;;;;;9.63;0.65;;;7.10;99.90;;;;;;5100876;28;20044;-85
2024/01/23 10:18:59;;;;;;;1.75;0.43;;;7.20;99.90;;;;;;5065575;28;20597;-85
2024/01/23 10:21:25;;;;;;;1.48;1.38;;;7.20;99.90;;;;;;5093977;28;20052;-85
2024/01/23 10:23:52;;;;;;;0.80;0.55;;;7.40;99.90;;;;;;5095355;28;20429;-85
2024/01/23 10:26:18;;;;;;;0.40;0.40;;;7.40;99.90;;;;;;5077326;28;20055;-85
2024/01/23 10:28:44;;;;;;;1.30;1.20;;;7.40;99.90;;;;;;5069106;28;20458;-85
2024/01/23 10:31:10;;;;;;;1.08;0.80;;;7.50;99.90;;;;;;5095417;28;20417;-85
2024/01/23 10:33:37;;;;;;;3.10;2.05;;;7.50;94.30;;;;;;5068058;28;20048;-85
2024/01/23 10:36:05;;;;;;;6.75;2.10;;;7.40;94.30;;;;;;5094926;28;20047;-85
2024/01/23 10:38:31;;;;;;;1.95;1.80;;;7.40;99.90;;;;;;5068022;28;20055;-85
2024/01/23 10:40:59;;;;;;;0.40;0.40;;;7.50;99.90;;;;;;5095587;28;20047;-85
2024/01/23 10:43:29;;;;;;;4.22;2.08;;;7.50;99.90;;;;;;5069405;28;20092;-85
2024/01/23 10:45:58;;;;;;;1.30;0.65;;;7.50;99.10;;;;;;5094450;28;20498;-85
2024/01/23 10:48:24;;;;;;;16.17;2.25;;;7.50;93.70;;;;;;5095064;28;20044;-84
2024/01/23 10:50:53;;;;;;;8.00;0.32;;;7.50;91.90;;;;;;5093573;28;20051;-85
2024/01/23 10:53:22;;;;;;;15.65;1.83;;;7.50;99.90;;;;;;5091454;28;20044;-85
2024/01/23 10:55:50;;;;;;;7.80;1.80;;;7.60;72.70;;;;;;5091032;28;20063;-85
2024/01/23 10:58:29;;;;;;;0.05;0.05;;;7.60;63.90;;;;;;5100150;28;20063;-85
2024/01/23 11:00:59;;;;;;;3.03;2.17;;;7.60;58.00;;;;;;5091025;28;20822;-85
2024/01/23 11:03:25;;;;;;;0.80;0.60;;;7.60;43.20;;;;;;5091911;28;20075;-85
2024/01/23 11:06:03;;;;;;;5.78;2.75;;;7.70;27.10;;;;;;5091883;28;20063;-85
2024/01/23 11:08:38;;;;;;;0.15;0.10;;;7.70;24.80;;;;;;5084067;28;20040;-85
2024/01/23 11:11:22;;;;;;;1.45;0.73;;;7.80;34.90;;;;;;5091564;28;20063;-85
2024/01/23 11:13:55;;;;;;;0.85;0.52;;;7.80;18.30;;;;;;5092826;28;20134;-85
2024/01/23 11:16:21;;;;;;;0.40;0.38;;;7.80;5.70;;;;;;5103379;28;20147;-84
2024/01/23 11:18:47;;;;;;;3.75;1.08;;;7.80;7.40;;;;;;5094288;28;20040;-85
2024/01/23 11:21:14;;;;;;;0.20;0.20;;;7.80;7.70;;;;;;5051102;28;20055;-85
2024/01/23 11:23:42;;;;;;;2.45;0.98;;;7.90;1.00;;;;;;5096069;28;20512;-85
2024/01/23 11:26:22;;;;;;;1.52;1.25;;;8.10;1.00;;;;;;5069318;28;20236;-85
2024/01/23 11:28:53;;;;;;;1.10;0.98;;;8.20;1.00;;;;;;5084160;28;20040;-85
2024/01/23 11:31:21;;;;;;;9.73;1.10;;;8.30;1.00;;;;;;5082865;28;20075;-85
2024/01/23 11:33:47;;;;;;;0.57;0.57;;;9.40;1.00;;;;;;5090992;28;20051;-85
2024/01/23 11:36:27;;;;;;;1.98;1.23;;;8.50;1.00;;;;;;5091337;28;20047;-85
2024/01/23 11:39:02;;;;;;;0.38;0.38;;;8.40;1.00;;;;;;5091106;28;20044;-85
2024/01/23 11:41:28;;;;;;;0.20;0.20;;;8.30;1.00;;;;;;5091437;28;20089;-85
2024/01/23 11:43:54;;;;;;;1.75;1.20;;;8.30;1.00;;;;;;5066826;28;20048;-85
2024/01/23 11:46:25;;;;;;;0.15;0.15;;;8.30;1.00;;;;;;5053401;28;20128;-85
2024/01/23 11:48:52;;;;;;;0.05;0.05;;;8.20;1.00;;;;;;5099766;28;20491;-85
2024/01/23 11:51:18;;;;;;;0.52;0.35;;;8.10;1.00;;;;;;5091213;28;20086;-85
2024/01/23 11:53:45;;;;;;;0.00;0.00;;;8.00;1.00;;;;;;5103980;28;20075;-85
2024/01/23 11:56:12;;;;;;;5.38;2.13;;;7.90;1.00;;;;;;5098385;28;20050;-85
2024/01/23 11:58:40;;;;;;;0.00;0.00;;;8.00;1.00;;;;;;5100027;28;20036;-85
2024/01/23 12:01:07;;;;;;;0.20;0.20;;;8.00;1.00;;;;;;5097067;28;20040;-85
2024/01/23 12:03:34;;;;;;;0.38;0.38;;;8.10;1.00;;;;;;5098117;28;20450;-85
2024/01/23 12:06:03;;;;;;;5.13;1.35;;;8.20;1.00;;;;;;5096939;28;20047;-85
2024/01/23 12:08:29;;;;;;;6.88;1.08;;;8.20;1.00;;;;;;5067545;28;20058;-85
2024/01/23 12:10:56;;;;;;;7.32;0.73;;;8.20;1.00;;;;;;5094956;28;20183;-85
2024/01/23 12:13:23;;;;;;;4.38;0.95;;;8.20;1.00;;;;;;5097292;28;20402;-85
2024/01/23 12:15:48;;;;;;;1.38;1.27;;;8.30;1.00;;;;;;5073699;28;20058;-85
2024/01/23 12:18:14;;;;;;;0.80;0.63;;;8.40;1.00;;;;;;5095631;28;20052;-84
2024/01/23 12:20:45;;;;;;;0.88;0.70;;;8.40;1.00;;;;;;5093597;28;20044;-85
2024/01/23 12:23:11;;;;;;;2.65;0.98;;;8.50;1.00;;;;;;5094817;28;20528;-85
2024/01/23 12:25:37;;;;;;;29.27;3.00;;;8.60;1.00;;;;;;5094426;28;20044;-85
2024/01/23 12:28:02;;;;;;;0.20;0.15;;;8.60;1.00;;;;;;5094386;28;20296;-85
2024/01/23 12:30:28;;;;;;;2.75;2.15;;;8.60;1.00;;;;;;5095371;28;20127;-85
2024/01/23 12:32:56;;;;;;;0.35;0.30;;;8.80;1.00;;;;;;5097741;28;20048;-85
2024/01/23 12:35:22;;;;;;;0.57;0.55;;;8.80;1.00;;;;;;5097714;28;20040;-85
2024/01/23 12:37:51;;;;;;;15.98;1.13;;;8.90;1.00;;;;;;5094992;28;20085;-85
2024/01/23 12:40:17;;;;;;;3.55;0.57;;;8.80;1.00;;;;;;5094529;28;20390;-85
2024/01/23 12:42:44;;;;;;;0.20;0.20;;;8.90;1.00;;;;;;5095735;28;20055;-85
2024/01/23 12:45:15;;;;;;;3.47;1.10;;;8.80;1.00;;;;;;5057540;28;20383;-85
2024/01/23 12:47:43;;;;;;;5.63;1.55;;;9.00;1.00;;;;;;5095391;28;20066;-85
2024/01/23 12:50:29;;;;;;;0.00;0.00;;;9.10;1.00;;;;;;5103955;28;20083;-85
2024/01/23 12:52:56;;;;;;;1.20;0.95;;;10.40;1.00;;;;;;5105972;28;20049;-85
2024/01/23 12:55:24;;;;;;;2.63;0.85;;;9.40;1.00;;;;;;5081461;28;20059;-84
2024/01/23 12:57:51;;;;;;;0.60;0.35;;;9.30;1.00;;;;;;5100903;28;20051;-85